Time;durP1;ratioP1;P1;durP2;ratioP2;P2;SDS_P1;SDS_P2;PMS_P1;PMS_P2;Temp;Humidity;BMP_temperature;BMP_pressure;BME280_temperature;BME280_humidity;BME280_pressure;Samples;Min_cycle;Max_cycle;Signal;HPM_P1;HPM_P2
2022/08/26 00:01:35;;;;;;;21.30;5.68;;;;;;;20.58;nan;94689.66;5043146;28;20230;-67
2022/08/26 00:04:02;;;;;;;16.63;6.05;;;;;;;20.50;nan;94693.81;5041589;28;20657;-66
2022/08/26 00:06:29;;;;;;;20.67;6.40;;;;;;;20.51;nan;94682.53;5045035;28;20218;-67
2022/08/26 00:08:56;;;;;;;19.63;6.57;;;;;;;20.31;nan;94684.03;5041404;28;20263;-66
2022/08/26 00:11:24;;;;;;;24.17;7.10;;;;;;;20.42;nan;94678.09;5043562;28;20204;-66
2022/08/26 00:13:51;;;;;;;15.77;6.78;;;;;;;20.46;nan;94679.50;5045291;28;20202;-66
2022/08/26 00:16:18;;;;;;;22.13;6.75;;;;;;;20.76;nan;94682.25;5046377;28;20214;-65
2022/08/26 00:18:45;;;;;;;15.48;7.05;;;;;;;21.15;nan;94682.56;5045039;28;20275;-66
2022/08/26 00:21:11;;;;;;;19.25;6.78;;;;;;;21.37;nan;94682.47;5044449;28;20222;-65
2022/08/26 00:23:38;;;;;;;23.17;6.90;;;;;;;21.27;nan;94682.44;5046153;28;20256;-66
2022/08/26 00:26:06;;;;;;;34.00;10.23;;;;;;;21.25;nan;94683.50;5045952;28;20263;-66
2022/08/26 00:28:34;;;;;;;17.83;9.27;;;;;;;20.99;nan;94678.63;5046462;28;20221;-65
2022/08/26 00:31:01;;;;;;;38.30;10.38;;;;;;;21.06;nan;94681.53;5043048;28;21344;-66
2022/08/26 00:33:28;;;;;;;29.58;10.35;;;;;;;21.05;nan;94683.28;5046162;28;20234;-66
2022/08/26 00:35:55;;;;;;;25.40;8.18;;;;;;;21.17;nan;94673.75;5046215;28;20719;-67
2022/08/26 00:38:22;;;;;;;28.42;9.68;;;;;;;21.16;nan;94676.44;5044631;28;20259;-67
2022/08/26 00:40:51;;;;;;;24.05;9.13;;;;;;;21.07;nan;94680.59;5044495;28;20885;-67
2022/08/26 00:43:18;;;;;;;19.80;9.00;;;;;;;20.77;nan;94678.72;5044850;28;20238;-66
2022/08/26 00:45:51;;;;;;;27.70;9.00;;;;;;;20.60;nan;94672.28;5044692;28;20210;-67
2022/08/26 00:48:21;;;;;;;34.95;9.52;;;;;;;20.80;nan;94673.28;5045274;28;20230;-67
2022/08/26 00:50:52;;;;;;;18.77;9.13;;;;;;;21.16;nan;94673.88;5044482;28;20216;-66
2022/08/26 00:53:23;;;;;;;22.27;8.75;;;;;;;21.28;nan;94676.28;5044145;28;20264;-67
2022/08/26 00:55:55;;;;;;;18.45;7.40;;;;;;;21.05;nan;94682.47;5043883;28;20893;-67
2022/08/26 00:58:24;;;;;;;18.27;6.28;;;;;;;20.63;nan;94676.41;5044633;28;20264;-66
2022/08/26 01:00:52;;;;;;;19.40;5.78;;;;;;;20.46;nan;94684.66;5043188;28;20206;-66
2022/08/26 01:03:23;;;;;;;26.92;6.30;;;;;;;20.42;nan;94671.16;5044051;28;20249;-66
2022/08/26 01:05:51;;;;;;;15.10;5.90;;;;;;;20.27;nan;94675.75;5043370;28;20723;-66
2022/08/26 01:08:18;;;;;;;16.42;5.65;;;;;;;20.18;nan;94671.28;5045569;28;20202;-66
2022/08/26 01:10:45;;;;;;;18.88;5.25;;;;;;;20.29;nan;94671.25;5045454;28;20608;-65
2022/08/26 01:13:12;;;;;;;13.80;5.97;;;;;;;20.22;nan;94667.53;5045237;28;20242;-68
2022/08/26 01:15:42;;;;;;;22.00;5.75;;;;;;;20.09;nan;94671.16;5045951;28;20203;-67
2022/08/26 01:18:13;;;;;;;30.10;6.78;;;;;;;20.09;nan;94678.91;5045030;28;20279;-67
2022/08/26 01:20:54;;;;;;;18.17;6.53;;;;;;;20.05;nan;94666.22;5045009;28;20208;-66
2022/08/26 01:23:23;;;;;;;21.40;6.40;;;;;;;20.40;nan;94659.31;5045958;28;20287;-66
2022/08/26 01:25:54;;;;;;;16.80;6.10;;;;;;;20.81;nan;94663.78;5046379;28;20236;-66
2022/08/26 01:28:26;;;;;;;16.90;6.60;;;;;;;21.10;nan;94664.00;5047681;28;20219;-66
2022/08/26 01:30:56;;;;;;;14.60;5.72;;;;;;;21.38;nan;94659.09;5049447;28;20225;-66
2022/08/26 01:33:31;;;;;;;11.95;4.68;;;;;;;21.47;nan;94657.53;5049279;28;20632;-65
2022/08/26 01:35:58;;;;;;;10.82;5.30;;;;;;;21.65;nan;94653.41;5049562;28;20210;-66
2022/08/26 01:38:27;;;;;;;20.55;6.28;;;;;;;21.76;nan;94662.84;5049369;28;20236;-66
2022/08/26 01:40:54;;;;;;;14.48;4.93;;;;;;;21.66;nan;94660.22;5049121;28;20206;-67
2022/08/26 01:43:24;;;;;;;17.25;5.22;;;;;;;21.62;nan;94658.00;5047964;28;20231;-67
2022/08/26 01:45:53;;;;;;;8.73;4.50;;;;;;;21.59;nan;94656.50;5048045;28;20197;-67
2022/08/26 01:48:25;;;;;;;18.88;4.88;;;;;;;21.41;nan;94663.19;5048183;28;20217;-67
2022/08/26 01:50:53;;;;;;;23.60;4.68;;;;;;;21.13;nan;94668.94;5047864;28;21031;-67
2022/08/26 01:53:23;;;;;;;15.10;5.03;;;;;;;20.61;nan;94665.38;5047601;28;20202;-67
2022/08/26 01:55:56;;;;;;;18.08;4.70;;;;;;;20.69;nan;94663.00;5047276;28;20268;-68
2022/08/26 01:58:26;;;;;;;17.63;4.50;;;;;;;20.84;nan;94659.19;5048187;28;20606;-67
2022/08/26 02:00:53;;;;;;;16.73;4.35;;;;;;;20.65;nan;94665.00;5047936;28;20206;-66
2022/08/26 02:03:21;;;;;;;19.48;5.00;;;;;;;20.37;nan;94665.53;5048119;28;20334;-67
2022/08/26 02:05:52;;;;;;;14.98;4.28;;;;;;;20.57;nan;94663.97;5048190;28;20261;-67
2022/08/26 02:08:22;;;;;;;15.27;5.05;;;;;;;20.69;nan;94657.84;5048445;28;20542;-67
2022/08/26 02:10:48;;;;;;;17.02;4.88;;;;;;;20.41;nan;94664.34;5048694;28;20214;-67
2022/08/26 02:13:17;;;;;;;23.60;4.90;;;;;;;20.13;nan;94665.66;5046583;28;20299;-67
2022/08/26 02:15:44;;;;;;;20.85;4.55;;;;;;;20.04;nan;94661.22;5048611;28;20211;-68
2022/08/26 02:18:12;;;;;;;13.88;5.03;;;;;;;20.06;nan;94661.91;5049086;28;20215;-67
2022/08/26 02:20:39;;;;;;;23.27;5.95;;;;;;;20.23;nan;94664.00;5048877;28;20210;-67
2022/08/26 02:23:07;;;;;;;18.30;5.45;;;;;;;20.15;nan;94660.38;5047837;28;20258;-67
2022/08/26 02:25:43;;;;;;;10.07;4.07;;;;;;;20.36;nan;94654.34;5048110;28;21618;-67
2022/08/26 02:28:10;;;;;;;13.60;4.57;;;;;;;20.61;nan;94652.44;5048499;28;20209;-66
2022/08/26 02:30:40;;;;;;;15.98;4.88;;;;;;;20.62;nan;94651.50;5047683;28;20206;-67
2022/08/26 02:33:07;;;;;;;22.90;5.00;;;;;;;20.43;nan;94656.50;5048085;28;20696;-67
2022/08/26 02:35:35;;;;;;;9.52;5.05;;;;;;;20.15;nan;94662.94;5047479;28;20679;-68
2022/08/26 02:38:02;;;;;;;24.20;6.05;;;;;;;20.02;nan;94660.50;5048588;28;20204;-68
2022/08/26 02:40:32;;;;;;;20.08;5.50;;;;;;;20.02;nan;94663.09;5047517;28;20291;-68
2022/08/26 02:42:59;;;;;;;23.77;5.75;;;;;;;20.30;nan;94659.16;5047735;28;20749;-68
2022/08/26 02:45:27;;;;;;;23.70;4.78;;;;;;;20.47;nan;94655.31;5047275;28;20660;-66
2022/08/26 02:47:56;;;;;;;21.83;5.10;;;;;;;20.42;nan;94654.84;5048025;28;20218;-67
2022/08/26 02:50:24;;;;;;;24.75;5.50;;;;;;;20.11;nan;94658.97;5048423;28;20903;-67
2022/08/26 02:52:51;;;;;;;19.65;5.93;;;;;;;20.36;nan;94664.69;5047609;28;20766;-67
2022/08/26 02:55:18;;;;;;;20.38;5.82;;;;;;;20.33;nan;94666.69;5046650;28;20680;-66
2022/08/26 02:57:45;;;;;;;27.45;5.97;;;;;;;20.13;nan;94665.66;5048232;28;20206;-67
2022/08/26 03:00:14;;;;;;;13.45;5.68;;;;;;;20.11;nan;94664.13;5047797;28;20202;-67
2022/08/26 03:02:41;;;;;;;20.88;6.10;;;;;;;19.96;nan;94658.41;5048416;28;20230;-67
2022/08/26 03:05:11;;;;;;;18.55;6.10;;;;;;;19.94;nan;94662.84;5047274;28;20199;-68
2022/08/26 03:07:38;;;;;;;31.17;6.32;;;;;;;19.77;nan;94666.72;5048024;28;20803;-67
2022/08/26 03:10:07;;;;;;;30.52;5.93;;;;;;;19.83;nan;94668.81;5046199;28;20729;-67
2022/08/26 03:12:34;;;;;;;23.98;7.35;;;;;;;20.11;nan;94664.94;5047023;28;20203;-67
2022/08/26 03:15:01;;;;;;;29.42;7.72;;;;;;;19.85;nan;94668.69;5045717;28;20202;-68
2022/08/26 03:17:29;;;;;;;17.42;7.35;;;;;;;20.13;nan;94665.66;5046230;28;20637;-66
2022/08/26 03:19:55;;;;;;;17.27;6.88;;;;;;;20.46;nan;94664.00;5046303;28;20737;-67
2022/08/26 03:22:24;;;;;;;23.13;5.75;;;;;;;20.89;nan;94666.56;5046009;28;20340;-67
2022/08/26 03:24:51;;;;;;;19.60;6.93;;;;;;;20.99;nan;94670.88;5047242;28;20672;-67
2022/08/26 03:27:18;;;;;;;21.05;7.20;;;;;;;20.83;nan;94667.88;5047148;28;20253;-67
2022/08/26 03:32:29;;;;;;;19.00;8.02;;;;;;;20.64;nan;94672.88;5048227;28;20237;-67
2022/08/26 03:34:56;;;;;;;15.82;6.57;;;;;;;20.58;nan;94663.03;5047439;28;20198;-68
2022/08/26 03:37:24;;;;;;;23.20;8.15;;;;;;;20.29;nan;94671.25;5047687;28;20199;-66
2022/08/26 03:39:51;;;;;;;19.50;7.40;;;;;;;20.32;nan;94668.44;5047269;28;20214;-66
2022/08/26 03:42:18;;;;;;;17.50;7.68;;;;;;;20.63;nan;94666.06;5046861;28;20307;-67
2022/08/26 03:44:44;;;;;;;17.95;7.18;;;;;;;20.78;nan;94664.88;5047218;28;20271;-67
2022/08/26 03:47:11;;;;;;;28.58;7.38;;;;;;;20.85;nan;94671.16;5047724;28;20238;-67
2022/08/26 03:49:38;;;;;;;23.60;7.30;;;;;;;20.94;nan;94670.44;5047069;28;20256;-66
2022/08/26 03:52:05;;;;;;;17.92;7.45;;;;;;;20.83;nan;94662.72;5046115;28;20741;-67
2022/08/26 03:54:34;;;;;;;21.60;6.80;;;;;;;20.62;nan;94669.59;5046961;28;20237;-67
2022/08/26 03:57:01;;;;;;;26.25;6.90;;;;;;;20.21;nan;94663.31;5046314;28;20207;-67
2022/08/26 03:59:28;;;;;;;26.88;6.95;;;;;;;19.87;nan;94661.66;5047121;28;20267;-67
2022/08/26 04:01:55;;;;;;;19.85;7.55;;;;;;;19.73;nan;94664.50;5045903;28;20237;-66
2022/08/26 04:04:21;;;;;;;20.80;7.60;;;;;;;19.92;nan;94667.31;5046464;28;20257;-66
2022/08/26 04:06:48;;;;;;;21.45;7.70;;;;;;;20.35;nan;94667.38;5045951;28;20299;-66
2022/08/26 04:09:19;;;;;;;22.10;7.88;;;;;;;20.53;nan;94660.81;5046888;28;20217;-66
2022/08/26 04:11:48;;;;;;;18.55;7.82;;;;;;;20.79;nan;94663.88;5046901;28;20278;-66
2022/08/26 04:14:18;;;;;;;26.17;8.13;;;;;;;21.01;nan;94663.03;5046752;28;20198;-66
2022/08/26 04:16:45;;;;;;;19.83;5.90;;;;;;;20.86;nan;94662.47;5046372;28;20676;-64
2022/08/26 04:19:14;;;;;;;25.38;5.78;;;;;;;20.54;nan;94662.44;5046742;28;20242;-64
2022/08/26 04:21:41;;;;;;;32.88;6.70;;;;;;;20.17;nan;94667.06;5047461;28;20209;-65
2022/08/26 04:24:10;;;;;;;18.15;6.68;;;;;;;19.90;nan;94651.13;5046983;28;20230;-66
2022/08/26 04:26:38;;;;;;;23.25;7.03;;;;;;;19.87;nan;94661.66;5045580;28;20999;-67
2022/08/26 04:29:08;;;;;;;22.27;7.22;;;;;;;19.89;nan;94659.78;5046664;28;20284;-67
2022/08/26 04:31:36;;;;;;;19.52;6.50;;;;;;;19.93;nan;94667.19;5046030;28;20668;-68
2022/08/26 04:34:04;;;;;;;30.48;6.70;;;;;;;20.09;nan;94655.69;5046945;28;20202;-66
2022/08/26 04:36:31;;;;;;;25.35;5.97;;;;;;;20.24;nan;94663.06;5046138;28;20206;-66
2022/08/26 04:39:01;;;;;;;27.20;5.95;;;;;;;20.17;nan;94669.63;5044180;28;20672;-67
2022/08/26 04:41:28;;;;;;;22.75;6.05;;;;;;;20.18;nan;94662.72;5046736;28;20680;-67
2022/08/26 04:43:55;;;;;;;20.38;6.95;;;;;;;20.18;nan;94670.47;5046468;28;20616;-67
2022/08/26 04:46:24;;;;;;;32.35;7.82;;;;;;;20.22;nan;94667.53;5046450;28;20354;-66
2022/08/26 04:48:52;;;;;;;26.05;7.13;;;;;;;20.47;nan;94673.38;5045855;28;20206;-66
2022/08/26 04:51:26;;;;;;;39.45;7.43;;;;;;;20.81;nan;94664.59;5046678;28;20267;-67
2022/08/26 04:53:55;;;;;;;33.72;7.72;;;;;;;20.71;nan;94663.72;5045549;28;20218;-67
2022/08/26 04:56:24;;;;;;;24.70;6.80;;;;;;;20.94;nan;94670.44;5046107;28;20742;-67
2022/08/26 04:58:51;;;;;;;23.50;6.68;;;;;;;21.35;nan;94663.69;5044275;28;20217;-67
2022/08/26 05:01:19;;;;;;;29.17;5.45;;;;;;;21.63;nan;94657.88;5046444;28;20206;-68
2022/08/26 05:03:47;;;;;;;16.52;5.47;;;;;;;21.82;nan;94671.84;5047664;28;20249;-69
2022/08/26 05:06:14;;;;;;;21.50;6.22;;;;;;;21.84;nan;94667.38;5050635;28;20222;-68
2022/08/26 05:08:41;;;;;;;21.55;6.70;;;;;;;21.95;nan;94662.13;5049242;28;20195;-68
2022/08/26 05:11:08;;;;;;;27.08;5.82;;;;;;;21.86;nan;94662.88;5049741;28;20229;-69
2022/08/26 05:13:37;;;;;;;26.77;6.72;;;;;;;21.62;nan;94665.75;5048111;28;20737;-69
2022/08/26 05:16:07;;;;;;;26.88;5.47;;;;;;;21.46;nan;94668.81;5048087;28;20297;-68
2022/08/26 05:18:34;;;;;;;31.27;7.15;;;;;;;21.28;nan;94678.88;5046609;28;20214;-67
2022/08/26 05:21:03;;;;;;;33.28;7.63;;;;;;;21.33;nan;94675.91;5047193;28;20232;-67
2022/08/26 05:23:31;;;;;;;24.95;6.35;;;;;;;21.25;nan;94673.16;5048240;28;20318;-68
2022/08/26 05:25:59;;;;;;;37.30;7.70;;;;;;;21.34;nan;94673.22;5048490;28;20794;-66
2022/08/26 05:28:28;;;;;;;24.67;7.57;;;;;;;21.61;nan;94675.28;5049510;28;20758;-67
2022/08/26 05:30:55;;;;;;;42.75;7.68;;;;;;;21.69;nan;94674.66;5049069;28;20208;-67
2022/08/26 05:33:23;;;;;;;23.65;7.20;;;;;;;21.90;nan;94670.25;5048392;28;20214;-68
2022/08/26 05:35:50;;;;;;;13.00;6.55;;;;;;;21.96;nan;94680.09;5049692;28;20210;-67
2022/08/26 05:38:20;;;;;;;20.73;6.82;;;;;;;22.03;nan;94673.47;5049104;28;20238;-67
2022/08/26 05:40:50;;;;;;;21.70;7.03;;;;;;;22.25;nan;94679.44;5049297;28;20817;-68
2022/08/26 05:43:17;;;;;;;22.20;7.10;;;;;;;22.22;nan;94677.94;5048876;28;20229;-67
2022/08/26 05:45:47;;;;;;;31.90;7.25;;;;;;;22.18;nan;94679.13;5049366;28;20206;-66
2022/08/26 05:48:15;;;;;;;24.38;6.82;;;;;;;22.01;nan;94682.34;5049754;28;20640;-66
2022/08/26 05:50:44;;;;;;;22.70;6.47;;;;;;;22.30;nan;94685.84;5049691;28;20202;-67
2022/08/26 05:53:13;;;;;;;26.27;7.63;;;;;;;22.42;nan;94685.75;5048516;28;20271;-66
2022/08/26 05:55:44;;;;;;;21.27;6.50;;;;;;;22.59;nan;94683.31;5048988;28;20202;-66
2022/08/26 05:58:11;;;;;;;32.40;6.22;;;;;;;22.48;nan;94680.88;5049196;28;20275;-66
2022/08/26 06:00:38;;;;;;;22.15;6.10;;;;;;;22.46;nan;94677.59;5048803;28;20394;-66
2022/08/26 06:03:07;;;;;;;28.05;7.32;;;;;;;22.20;nan;94677.25;5047850;28;21706;-66
2022/08/26 06:05:38;;;;;;;24.77;7.25;;;;;;;22.08;nan;94678.25;5049883;28;20234;-67
2022/08/26 06:08:12;;;;;;;25.55;7.35;;;;;;;22.26;nan;94692.25;5048097;28;20206;-69
2022/08/26 06:10:45;;;;;;;23.63;7.38;;;;;;;22.32;nan;94690.88;5048483;28;20198;-68
2022/08/26 06:13:12;;;;;;;25.42;6.88;;;;;;;22.36;nan;94690.50;5048315;28;20267;-67
2022/08/26 06:15:41;;;;;;;26.63;6.40;;;;;;;22.43;nan;94682.22;5048827;28;20260;-66
2022/08/26 06:18:08;;;;;;;32.20;8.10;;;;;;;22.58;nan;94686.06;5048333;28;20214;-66
2022/08/26 06:20:36;;;;;;;19.92;6.68;;;;;;;22.97;nan;94689.56;5047675;28;20272;-67
2022/08/26 06:25:49;;;;;;;23.67;6.35;;;;;;;23.56;nan;94701.56;5048737;28;20232;-67
2022/08/26 06:28:16;;;;;;;27.80;6.80;;;;;;;23.53;nan;94694.88;5048774;28;20217;-67
2022/08/26 06:30:43;;;;;;;31.90;8.00;;;;;;;23.61;nan;94697.63;5048458;28;20298;-67
2022/08/26 06:33:09;;;;;;;21.33;6.03;;;;;;;24.12;nan;94691.19;5047421;28;20690;-67
2022/08/26 06:35:38;;;;;;;22.73;6.40;;;;;;;25.23;nan;94700.63;5048779;28;20959;-67
2022/08/26 06:38:05;;;;;;;23.17;7.13;;;;;;;26.17;nan;94693.81;5048347;28;20642;-67
2022/08/26 06:40:33;;;;;;;26.92;6.63;;;;;;;26.28;nan;94698.75;5048120;28;20214;-67
2022/08/26 06:43:01;;;;;;;20.23;6.15;;;;;;;25.80;nan;94699.28;5046732;28;20234;-67
2022/08/26 06:45:27;;;;;;;22.08;6.30;;;;;;;25.43;nan;94699.47;5048164;28;20664;-67
2022/08/26 06:47:54;;;;;;;26.00;6.78;;;;;;;24.97;nan;94700.53;5048011;28;20302;-68
2022/08/26 06:50:21;;;;;;;18.75;6.28;;;;;;;24.50;nan;94705.03;5047496;28;20199;-66
2022/08/26 06:52:48;;;;;;;24.85;6.30;;;;;;;24.59;nan;94701.53;5047330;28;20820;-65
2022/08/26 06:55:14;;;;;;;20.73;5.75;;;;;;;24.59;nan;94704.94;5047755;28;20210;-68
2022/08/26 06:57:41;;;;;;;13.63;6.85;;;;;;;24.74;nan;94700.09;5049011;28;20210;-67
2022/08/26 07:00:11;;;;;;;25.75;8.32;;;;;;;24.94;nan;94700.78;5045449;28;20654;-67
2022/08/26 07:02:38;;;;;;;27.75;7.93;;;;;;;25.15;nan;94696.16;5045939;28;20248;-67
2022/08/26 07:05:06;;;;;;;20.50;6.50;;;;;;;25.38;nan;94699.09;5046092;28;20230;-67
2022/08/26 07:07:32;;;;;;;26.23;8.45;;;;;;;25.36;nan;94701.03;5045654;28;20946;-66
2022/08/26 07:09:59;;;;;;;21.38;7.50;;;;;;;25.45;nan;94697.56;5045499;28;20211;-69
2022/08/26 07:12:26;;;;;;;15.57;6.78;;;;;;;25.41;nan;94701.41;5045301;28;20338;-66
2022/08/26 07:14:53;;;;;;;23.48;6.20;;;;;;;25.17;nan;94701.19;5045994;28;20639;-66
2022/08/26 07:17:21;;;;;;;26.67;6.65;;;;;;;24.86;nan;94706.72;5047746;28;20821;-66
2022/08/26 07:19:48;;;;;;;23.10;7.75;;;;;;;24.79;nan;94710.03;5047540;28;20210;-67
2022/08/26 07:22:15;;;;;;;22.98;6.93;;;;;;;24.71;nan;94708.19;5046975;28;20236;-67
2022/08/26 07:24:42;;;;;;;21.10;7.47;;;;;;;24.52;nan;94703.06;5047510;28;20321;-68
2022/08/26 07:27:11;;;;;;;17.08;6.07;;;;;;;24.31;nan;94706.72;5047447;28;20263;-67
2022/08/26 07:29:39;;;;;;;29.52;6.47;;;;;;;24.24;nan;94705.69;5046730;28;20206;-66
2022/08/26 07:32:07;;;;;;;19.25;6.47;;;;;;;24.57;nan;94706.06;5046821;28;20198;-67
2022/08/26 07:34:37;;;;;;;24.85;7.10;;;;;;;24.62;nan;94712.47;5046840;28;20249;-67
2022/08/26 07:37:05;;;;;;;30.02;6.95;;;;;;;24.59;nan;94704.13;5047745;28;20596;-67
2022/08/26 07:39:32;;;;;;;24.88;6.28;;;;;;;24.79;nan;94705.66;5045967;28;20580;-68
2022/08/26 07:42:00;;;;;;;18.27;6.55;;;;;;;24.80;nan;94704.69;5047180;28;22225;-66
2022/08/26 07:44:27;;;;;;;20.63;6.68;;;;;;;24.88;nan;94704.78;5047453;28;20245;-67
2022/08/26 07:46:54;;;;;;;21.90;6.30;;;;;;;24.89;nan;94706.44;5047687;28;20559;-67
2022/08/26 07:49:21;;;;;;;24.20;6.70;;;;;;;24.64;nan;94707.13;5047086;28;20222;-67
2022/08/26 07:51:50;;;;;;;13.38;6.22;;;;;;;24.51;nan;94699.66;5046619;28;20207;-66
2022/08/26 07:54:17;;;;;;;20.60;6.22;;;;;;;24.59;nan;94704.13;5046779;28;20897;-66
2022/08/26 07:56:44;;;;;;;24.85;6.32;;;;;;;24.71;nan;94713.38;5046468;28;20217;-67
2022/08/26 07:59:12;;;;;;;16.83;6.70;;;;;;;24.61;nan;94710.00;5047182;28;20210;-67
2022/08/26 08:01:39;;;;;;;22.58;6.13;;;;;;;24.62;nan;94706.44;5045969;28;21559;-66
2022/08/26 08:04:06;;;;;;;18.48;6.60;;;;;;;24.68;nan;94704.09;5046992;28;20226;-67
2022/08/26 08:06:32;;;;;;;20.25;6.65;;;;;;;24.74;nan;94707.91;5046919;28;20262;-67
2022/08/26 08:09:01;;;;;;;16.48;7.05;;;;;;;24.86;nan;94706.72;5045342;28;20207;-67
2022/08/26 08:11:29;;;;;;;23.63;6.55;;;;;;;24.91;nan;94703.69;5046578;28;20768;-67
2022/08/26 08:13:56;;;;;;;21.35;7.05;;;;;;;25.37;nan;94707.88;5046722;28;20375;-67
2022/08/26 08:16:24;;;;;;;29.10;6.63;;;;;;;25.55;nan;94703.47;5046867;28;20702;-67
2022/08/26 08:18:52;;;;;;;23.40;6.97;;;;;;;25.55;nan;94703.47;5046086;28;20217;-66
2022/08/26 08:21:19;;;;;;;19.95;6.70;;;;;;;25.58;nan;94700.56;5046230;28;20293;-66
2022/08/26 08:23:45;;;;;;;23.08;7.28;;;;;;;25.73;nan;94706.09;5046973;28;20230;-66
2022/08/26 08:26:14;;;;;;;24.40;6.93;;;;;;;25.85;nan;94702.25;5045521;28;20202;-66
2022/08/26 08:28:41;;;;;;;23.58;6.97;;;;;;;25.72;nan;94707.88;5044078;28;20209;-68
2022/08/26 08:31:07;;;;;;;20.48;7.25;;;;;;;25.15;nan;94711.75;5044802;28;20210;-67
2022/08/26 08:33:34;;;;;;;21.77;6.70;;;;;;;25.27;nan;94712.31;5045183;28;20203;-67
2022/08/26 08:36:01;;;;;;;13.75;5.95;;;;;;;25.43;nan;94702.91;5044480;28;21951;-66
2022/08/26 08:38:29;;;;;;;21.25;6.78;;;;;;;25.75;nan;94709.34;5045450;28;20303;-65
2022/08/26 08:40:56;;;;;;;18.42;6.03;;;;;;;26.11;nan;94704.84;5049172;28;20238;-65
2022/08/26 08:43:32;;;;;;;29.88;6.45;;;;;;;26.36;nan;94688.41;5049223;28;20206;-65
2022/08/26 08:46:05;;;;;;;28.50;4.90;;;;;;;26.71;nan;94689.19;5047712;28;20257;-66
2022/08/26 08:48:36;;;;;;;19.65;6.05;;;;;;;27.03;nan;94686.69;5048450;28;20213;-66
2022/08/26 08:51:15;;;;;;;31.58;8.07;;;;;;;27.50;nan;94683.44;5048550;28;20229;-66
2022/08/26 08:53:45;;;;;;;21.95;5.88;;;;;;;27.74;nan;94682.66;5047448;28;22202;-66
2022/08/26 08:56:22;;;;;;;23.65;7.03;;;;;;;27.88;nan;94676.75;5048394;28;20586;-65
2022/08/26 08:59:00;;;;;;;17.90;6.20;;;;;;;27.35;nan;94679.88;5049610;28;21529;-65
2022/08/26 09:01:44;;;;;;;21.90;5.93;;;;;;;27.32;nan;94675.78;5049189;28;20230;-65
2022/08/26 09:04:42;;;;;;;23.25;6.03;;;;;;;27.25;nan;94681.81;5050420;28;20310;-66
2022/08/26 09:07:13;;;;;;;29.33;6.60;;;;;;;26.67;nan;94675.66;5049360;28;20695;-65
2022/08/26 09:09:45;;;;;;;21.48;5.47;;;;;;;26.47;nan;94674.28;5049315;28;20588;-66
2022/08/26 09:12:17;;;;;;;25.95;6.43;;;;;;;26.58;nan;94670.56;5049405;28;20739;-65
2022/08/26 09:14:47;;;;;;;22.23;5.45;;;;;;;26.78;nan;94674.53;5048295;28;20202;-65
2022/08/26 09:17:24;;;;;;;27.73;8.13;;;;;;;26.86;nan;94669.34;5048428;28;20580;-64
2022/08/26 09:19:54;;;;;;;19.05;6.50;;;;;;;27.30;nan;94671.72;5046797;28;20275;-65
2022/08/26 09:22:29;;;;;;;19.50;5.97;;;;;;;27.51;nan;94664.19;5049076;28;20202;-65
2022/08/26 09:24:56;;;;;;;18.10;5.18;;;;;;;27.73;nan;94657.50;5048035;28;20299;-66
2022/08/26 09:27:41;;;;;;;25.98;5.90;;;;;;;28.02;nan;94665.63;5047562;28;20295;-66
2022/08/26 09:30:14;;;;;;;19.90;6.70;;;;;;;28.11;nan;94656.78;5049454;28;20202;-66
2022/08/26 09:32:43;;;;;;;17.38;4.45;;;;;;;27.70;nan;94657.88;5049346;28;20198;-65
2022/08/26 09:35:23;;;;;;;26.48;5.22;;;;;;;27.88;nan;94655.06;5049566;28;20203;-65
2022/08/26 09:37:50;;;;;;;38.50;19.65;;;;;;;28.33;nan;94657.88;5048854;28;20260;-65
2022/08/26 09:40:28;;;;;;;63.55;32.75;;;;;;;28.58;nan;94660.41;5048285;28;20312;-64
2022/08/26 09:43:12;;;;;;;17.50;6.68;;;;;;;28.36;nan;94665.38;5050004;28;20266;-64
2022/08/26 09:45:44;;;;;;;19.67;5.88;;;;;;;28.01;nan;94665.78;5049320;28;20241;-64
2022/08/26 09:48:10;;;;;;;21.58;5.93;;;;;;;27.37;nan;94663.06;5049417;28;20207;-64
2022/08/26 09:50:41;;;;;;;18.13;5.50;;;;;;;26.80;nan;94662.16;5048459;28;20225;-65
2022/08/26 09:53:15;;;;;;;20.60;5.55;;;;;;;26.67;nan;94657.41;5049486;28;20207;-67
2022/08/26 09:55:44;;;;;;;23.75;6.25;;;;;;;26.71;nan;94663.13;5049291;28;20229;-65
2022/08/26 09:58:14;;;;;;;14.27;5.88;;;;;;;26.75;nan;94656.59;5048344;28;20302;-65
2022/08/26 10:00:53;;;;;;;22.58;5.90;;;;;;;27.03;nan;94660.59;5048204;28;21818;-64
2022/08/26 10:03:27;;;;;;;22.75;8.27;;;;;;;26.98;nan;94657.66;5049009;28;20238;-65
2022/08/26 10:05:58;;;;;;;13.43;4.72;;;;;;;26.71;nan;94650.09;5048933;28;21622;-65
2022/08/26 10:08:29;;;;;;;20.38;5.18;;;;;;;27.12;nan;94647.56;5048085;28;20268;-64
2022/08/26 10:10:57;;;;;;;10.82;5.53;;;;;;;27.25;nan;94648.72;5048042;28;20230;-64
2022/08/26 10:13:31;;;;;;;13.70;5.93;;;;;;;27.30;nan;94645.63;5049399;28;20635;-64
2022/08/26 10:16:10;;;;;;;12.43;5.65;;;;;;;27.44;nan;94648.41;5048812;28;20210;-65
2022/08/26 10:18:40;;;;;;;11.50;5.22;;;;;;;27.54;nan;94643.00;5048496;28;20217;-65
2022/08/26 10:21:11;;;;;;;12.60;6.03;;;;;;;27.69;nan;94644.00;5049284;28;20221;-65
2022/08/26 10:23:42;;;;;;;12.27;5.85;;;;;;;27.67;nan;94643.34;5048210;28;20206;-65
2022/08/26 10:26:13;;;;;;;16.10;5.72;;;;;;;27.56;nan;94641.03;5049001;28;20252;-65
2022/08/26 10:28:46;;;;;;;25.33;6.43;;;;;;;27.65;nan;94639.28;5047605;28;20205;-64
2022/08/26 10:31:26;;;;;;;18.75;5.63;;;;;;;27.63;nan;94651.66;5048216;28;20206;-64
2022/08/26 10:33:54;;;;;;;14.10;5.55;;;;;;;27.86;nan;94638.75;5048555;28;20259;-66
2022/08/26 10:39:14;;;;;;;17.67;5.88;;;;;;;27.62;nan;94635.19;5048343;28;20689;-64
2022/08/26 10:41:47;;;;;;;16.33;6.13;;;;;;;27.39;nan;94634.22;5048399;28;20267;-65
2022/08/26 10:44:16;;;;;;;10.18;5.47;;;;;;;27.55;nan;94634.19;5048565;28;20227;-65
2022/08/26 10:46:50;;;;;;;6.20;4.70;;;;;;;27.62;nan;94634.38;5049086;28;20226;-64
2022/08/26 10:49:17;;;;;;;15.45;5.88;;;;;;;27.90;nan;94638.25;5048019;28;20570;-64
2022/08/26 10:51:54;;;;;;;13.70;6.22;;;;;;;28.19;nan;94627.22;5048541;28;20234;-64
2022/08/26 10:54:30;;;;;;;15.45;6.35;;;;;;;28.18;nan;94630.00;5048778;28;20311;-64
2022/08/26 10:57:01;;;;;;;12.95;5.38;;;;;;;28.44;nan;94627.97;5047912;28;20210;-64
2022/08/26 10:59:40;;;;;;;21.05;6.03;;;;;;;28.20;nan;94628.88;5046826;28;20602;-64
2022/08/26 11:02:13;;;;;;;12.45;5.13;;;;;;;28.16;nan;94624.94;5047424;28;20739;-65
2022/08/26 11:04:46;;;;;;;13.40;5.53;;;;;;;27.82;nan;94624.38;5047908;28;20317;-65
2022/08/26 11:07:33;;;;;;;12.07;5.10;;;;;;;28.17;nan;94626.56;5047852;28;20678;-65
2022/08/26 11:10:02;;;;;;;12.95;6.30;;;;;;;28.38;nan;94624.22;5046651;28;20203;-65
2022/08/26 11:12:56;;;;;;;12.95;5.70;;;;;;;28.38;nan;94620.78;5048678;28;20252;-64
2022/08/26 11:16:08;;;;;;;18.02;5.93;;;;;;;28.27;nan;94623.78;5048106;28;20291;-66
2022/08/26 11:18:40;;;;;;;12.43;5.82;;;;;;;27.89;nan;94625.34;5047224;28;20214;-66
2022/08/26 11:21:47;;;;;;;16.98;5.47;;;;;;;27.56;nan;94622.75;5047472;28;20684;-66
2022/08/26 11:24:46;;;;;;;14.68;5.80;;;;;;;27.35;nan;94623.28;5048598;28;20327;-65
2022/08/26 11:28:01;;;;;;;12.93;5.57;;;;;;;27.20;nan;94618.88;5078802;22;20742;-67
2022/08/26 11:30:48;;;;;;;15.55;6.45;;;;;;;27.79;nan;94609.84;5060842;28;20238;-66
2022/08/26 11:33:57;;;;;;;23.48;5.78;;;;;;;28.32;nan;94611.81;5060939;28;20198;-67
2022/08/26 11:36:39;;;;;;;17.83;7.40;;;;;;;28.60;nan;94613.97;5059355;28;20197;-66
2022/08/26 11:39:17;;;;;;;14.65;5.68;;;;;;;28.83;nan;94614.84;5061141;28;20205;-66
2022/08/26 11:41:45;;;;;;;11.73;5.88;;;;;;;28.36;nan;94620.16;5058599;28;20905;-65
2022/08/26 11:44:17;;;;;;;28.25;17.10;;;;;;;28.70;nan;94604.94;5061305;28;20256;-66
2022/08/26 11:46:53;;;;;;;9.57;6.18;;;;;;;28.82;nan;94602.75;5059313;28;20210;-67
2022/08/26 11:49:19;;;;;;;11.27;5.88;;;;;;;28.89;nan;94603.69;5059706;28;20236;-68
2022/08/26 11:51:48;;;;;;;18.33;7.68;;;;;;;29.07;nan;94600.78;5059589;28;20262;-67
2022/08/26 11:54:16;;;;;;;17.33;6.28;;;;;;;28.78;nan;94607.47;5060277;28;20909;-67
2022/08/26 11:56:46;;;;;;;21.23;5.80;;;;;;;28.36;nan;94594.00;5062265;28;20205;-66
2022/08/26 11:59:17;;;;;;;15.48;5.03;;;;;;;28.61;nan;94599.91;5057696;28;20263;-67
2022/08/26 12:01:48;;;;;;;12.30;4.78;;;;;;;28.94;nan;94590.91;5058022;28;20265;-67
2022/08/26 12:04:25;;;;;;;12.43;4.20;;;;;;;28.49;nan;94591.63;5060115;28;20207;-66